Time;durP1;ratioP1;P1;durP2;ratioP2;P2;SDS_P1;SDS_P2;PMS_P1;PMS_P2;Temp;Humidity;BMP_temperature;BMP_pressure;BME280_temperature;BME280_humidity;BME280_pressure;Samples;Min_cycle;Max_cycle;Signal;HPM_P1;HPM_P2
2023/12/23 00:00:16;;;;;;;1.98;0.73;;;2.70;83.80;;;;;;5012858;28;20050;-75
2023/12/23 00:02:42;;;;;;;0.22;0.20;;;2.70;83.80;;;;;;5024635;28;20116;-73
2023/12/23 00:05:08;;;;;;;1.58;0.68;;;2.60;84.40;;;;;;5012690;28;20033;-74
2023/12/23 00:07:35;;;;;;;0.30;0.30;;;2.50;84.50;;;;;;5018521;28;20396;-74
2023/12/23 00:10:04;;;;;;;4.68;0.50;;;2.40;84.90;;;;;;5016583;28;20466;-75
2023/12/23 00:12:30;;;;;;;0.98;0.40;;;2.30;85.40;;;;;;5016724;28;20038;-75
2023/12/23 00:14:56;;;;;;;0.52;0.20;;;2.30;84.90;;;;;;5018804;28;20107;-75
2023/12/23 00:17:21;;;;;;;3.97;0.80;;;2.40;84.50;;;;;;5015227;28;20454;-74
2023/12/23 00:19:47;;;;;;;0.93;0.32;;;2.40;84.40;;;;;;5018746;28;20342;-74
2023/12/23 00:22:12;;;;;;;2.00;0.70;;;2.30;85.00;;;;;;5014572;28;20037;-74
2023/12/23 00:24:38;;;;;;;1.25;0.30;;;2.20;85.50;;;;;;5009464;28;20116;-74
2023/12/23 00:27:04;;;;;;;0.63;0.45;;;2.40;84.30;;;;;;5014805;28;20046;-75
2023/12/23 00:29:30;;;;;;;4.53;0.88;;;2.40;84.70;;;;;;5013136;28;20490;-75
2023/12/23 00:31:55;;;;;;;3.17;0.55;;;2.30;85.30;;;;;;5011314;28;20363;-74
2023/12/23 00:34:21;;;;;;;1.20;0.30;;;2.30;85.20;;;;;;5012691;28;20439;-75
2023/12/23 00:36:46;;;;;;;1.40;0.70;;;2.30;84.80;;;;;;5013648;28;20033;-74
2023/12/23 00:39:12;;;;;;;1.70;0.73;;;2.30;85.60;;;;;;5018673;28;20374;-75
2023/12/23 00:41:38;;;;;;;1.65;0.80;;;2.30;85.50;;;;;;5017096;28;20091;-75
2023/12/23 00:44:04;;;;;;;0.60;0.30;;;2.30;85.70;;;;;;5023522;28;20030;-74
2023/12/23 00:46:29;;;;;;;4.43;0.85;;;2.30;85.70;;;;;;5015607;28;20108;-74
2023/12/23 00:48:55;;;;;;;4.32;0.75;;;2.40;85.70;;;;;;5024850;28;20489;-74
2023/12/23 00:51:21;;;;;;;3.13;0.30;;;2.50;85.00;;;;;;5018207;28;20107;-76
2023/12/23 00:53:46;;;;;;;2.47;0.40;;;2.40;85.90;;;;;;5025887;28;20068;-75
2023/12/23 00:56:18;;;;;;;1.35;0.55;;;2.40;85.60;;;;;;5017653;28;20069;-73
2023/12/23 00:58:44;;;;;;;0.63;0.40;;;2.50;85.00;;;;;;5016856;28;20033;-74
2023/12/23 01:01:09;;;;;;;2.25;0.82;;;2.40;85.50;;;;;;5015901;28;20032;-74
2023/12/23 01:03:35;;;;;;;3.35;0.20;;;2.40;85.70;;;;;;5019028;28;20033;-75
2023/12/23 01:06:00;;;;;;;1.40;0.68;;;2.40;85.80;;;;;;5015464;28;20464;-74
2023/12/23 01:08:27;;;;;;;2.47;0.32;;;2.30;86.10;;;;;;5029446;28;20500;-75
2023/12/23 01:10:52;;;;;;;0.47;0.32;;;2.30;86.20;;;;;;5017719;28;20041;-74
2023/12/23 01:13:19;;;;;;;4.60;0.70;;;2.30;86.70;;;;;;5021887;28;20041;-75
2023/12/23 01:15:45;;;;;;;2.55;0.40;;;2.20;86.80;;;;;;5013581;28;20057;-75
2023/12/23 01:18:10;;;;;;;1.33;0.47;;;2.30;86.40;;;;;;5016746;28;20455;-75
2023/12/23 01:20:38;;;;;;;0.65;0.30;;;2.20;86.70;;;;;;5026053;28;20029;-75
2023/12/23 01:23:04;;;;;;;0.85;0.30;;;2.20;86.30;;;;;;5012660;28;20120;-75
2023/12/23 01:25:29;;;;;;;3.25;0.47;;;2.20;86.40;;;;;;5023630;28;20037;-75
2023/12/23 01:27:55;;;;;;;1.60;0.45;;;2.20;86.50;;;;;;5026681;28;20350;-74
2023/12/23 01:30:20;;;;;;;2.05;0.73;;;2.20;87.00;;;;;;5021822;28;20040;-74
2023/12/23 01:32:46;;;;;;;1.70;0.73;;;2.20;86.50;;;;;;5024325;28;20204;-77
2023/12/23 01:35:11;;;;;;;3.35;0.82;;;2.20;86.50;;;;;;5025185;28;20060;-75
2023/12/23 01:37:37;;;;;;;3.55;0.45;;;2.20;86.80;;;;;;5020508;28;20484;-74
2023/12/23 01:40:03;;;;;;;2.42;0.40;;;2.30;86.30;;;;;;5021234;28;20084;-75
2023/12/23 01:42:29;;;;;;;2.35;0.80;;;2.30;86.40;;;;;;5016061;28;20055;-75
2023/12/23 01:44:54;;;;;;;3.45;0.73;;;2.30;86.60;;;;;;5022326;28;20108;-73
2023/12/23 01:47:20;;;;;;;1.55;0.30;;;2.30;86.40;;;;;;5023312;28;20086;-74
2023/12/23 01:49:47;;;;;;;1.17;0.50;;;2.40;85.80;;;;;;5019989;28;20037;-74
2023/12/23 01:52:12;;;;;;;0.80;0.55;;;2.50;85.80;;;;;;5023768;28;20535;-73
2023/12/23 01:54:38;;;;;;;2.53;0.50;;;2.50;85.50;;;;;;5019381;28;20037;-75
2023/12/23 01:57:03;;;;;;;0.98;0.20;;;2.50;85.40;;;;;;5018065;28;20542;-74
2023/12/23 01:59:29;;;;;;;1.55;0.50;;;2.60;85.50;;;;;;5024424;28;20036;-74
2023/12/23 02:01:55;;;;;;;1.63;0.25;;;2.60;85.20;;;;;;5020504;28;20113;-74
2023/12/23 02:04:21;;;;;;;4.28;0.65;;;2.60;85.80;;;;;;5021639;28;20079;-74
2023/12/23 02:06:47;;;;;;;0.52;0.30;;;2.50;86.30;;;;;;5024339;28;20199;-74
2023/12/23 02:09:12;;;;;;;3.72;0.65;;;2.40;86.60;;;;;;5020218;28;20046;-73
2023/12/23 02:11:52;;;;;;;4.75;0.40;;;2.40;87.00;;;;;;5020192;28;20049;-74
2023/12/23 02:14:34;;;;;;;1.63;0.68;;;2.40;87.10;;;;;;5015283;28;20415;-74
2023/12/23 02:17:00;;;;;;;1.63;0.30;;;2.40;87.10;;;;;;5017186;28;20048;-74
2023/12/23 02:19:26;;;;;;;1.13;0.20;;;2.40;87.80;;;;;;5017927;28;20066;-74
2023/12/23 02:21:51;;;;;;;1.60;0.40;;;2.40;88.40;;;;;;5017095;28;20037;-72
2023/12/23 02:24:17;;;;;;;0.40;0.30;;;2.40;88.60;;;;;;5015345;28;20049;-72
2023/12/23 02:26:46;;;;;;;3.67;0.55;;;2.40;89.30;;;;;;5016661;28;20386;-71
2023/12/23 02:29:13;;;;;;;0.98;0.40;;;2.40;89.50;;;;;;5022369;28;20048;-72
2023/12/23 02:31:38;;;;;;;1.45;0.45;;;2.50;89.40;;;;;;5010753;28;20042;-71
2023/12/23 02:34:04;;;;;;;1.02;0.22;;;2.40;89.60;;;;;;5019326;28;20029;-72
2023/12/23 02:36:29;;;;;;;1.08;0.50;;;2.50;89.40;;;;;;5015751;28;20118;-73
2023/12/23 02:38:55;;;;;;;0.47;0.20;;;2.40;89.70;;;;;;5014296;28;20414;-73
2023/12/23 02:41:20;;;;;;;1.58;0.50;;;2.40;89.80;;;;;;5010690;28;20476;-73
2023/12/23 02:43:46;;;;;;;3.42;0.30;;;2.40;90.00;;;;;;5016625;28;20125;-72
2023/12/23 02:46:11;;;;;;;1.75;0.57;;;2.40;90.20;;;;;;5015390;28;20040;-72
2023/12/23 02:48:37;;;;;;;2.95;0.10;;;2.40;90.20;;;;;;5009006;28;20034;-73
2023/12/23 02:51:02;;;;;;;0.63;0.20;;;2.50;89.90;;;;;;5015427;28;20385;-73
2023/12/23 02:53:28;;;;;;;1.08;0.60;;;2.40;90.20;;;;;;5016864;28;20052;-72
2023/12/23 02:55:53;;;;;;;1.35;0.30;;;2.50;90.30;;;;;;5013328;28;20038;-72
2023/12/23 02:58:19;;;;;;;1.77;0.70;;;2.50;89.90;;;;;;5008824;28;20029;-72
2023/12/23 03:00:44;;;;;;;4.63;0.70;;;2.40;90.40;;;;;;5016278;28;20026;-73
2023/12/23 03:03:10;;;;;;;1.70;0.55;;;2.50;90.40;;;;;;5017017;28;20037;-72
2023/12/23 03:05:35;;;;;;;2.05;0.57;;;2.40;90.30;;;;;;5015354;28;20032;-72
2023/12/23 03:08:01;;;;;;;0.57;0.43;;;2.50;90.20;;;;;;5021122;28;20091;-73
2023/12/23 03:10:26;;;;;;;1.05;0.45;;;2.60;89.80;;;;;;5018173;28;20045;-72
2023/12/23 03:12:52;;;;;;;4.03;0.73;;;2.60;89.70;;;;;;5031157;28;20033;-73
2023/12/23 03:15:17;;;;;;;0.20;0.20;;;2.60;89.70;;;;;;5020950;28;20200;-72
2023/12/23 03:17:43;;;;;;;3.70;0.35;;;2.60;89.70;;;;;;5026395;28;20128;-73
2023/12/23 03:20:09;;;;;;;2.08;0.52;;;2.60;89.60;;;;;;5026915;28;20125;-72
2023/12/23 03:22:34;;;;;;;0.70;0.38;;;2.60;89.30;;;;;;5021796;28;20029;-72
2023/12/23 03:25:00;;;;;;;2.67;0.88;;;2.70;89.10;;;;;;5015051;28;20064;-72
2023/12/23 03:27:25;;;;;;;0.90;0.40;;;2.80;88.90;;;;;;5251669;23;20070;-74
2023/12/23 03:29:52;;;;;;;1.15;0.32;;;2.80;88.50;;;;;;4968187;28;20474;-72
2023/12/23 03:32:17;;;;;;;3.65;0.85;;;2.80;88.30;;;;;;4972054;28;20085;-72
2023/12/23 03:34:43;;;;;;;0.55;0.50;;;3.00;87.90;;;;;;4978471;28;20513;-71
2023/12/23 03:37:09;;;;;;;2.28;0.65;;;3.00;87.90;;;;;;4983917;28;20106;-72
2023/12/23 03:39:35;;;;;;;0.65;0.47;;;3.00;88.30;;;;;;4976161;28;20035;-71
2023/12/23 03:42:00;;;;;;;2.13;0.93;;;3.00;88.40;;;;;;4969735;28;20086;-72
2023/12/23 03:44:26;;;;;;;0.35;0.25;;;3.00;88.50;;;;;;4969784;28;20038;-72
2023/12/23 03:46:51;;;;;;;0.95;0.52;;;3.10;88.60;;;;;;4973095;28;20046;-72
2023/12/23 03:49:17;;;;;;;2.33;0.50;;;3.10;89.00;;;;;;4965034;28;20550;-72
2023/12/23 03:51:42;;;;;;;5.70;1.35;;;3.20;89.10;;;;;;4971606;28;20034;-72
2023/12/23 03:54:08;;;;;;;0.45;0.38;;;3.20;89.40;;;;;;4966477;28;20035;-73
2023/12/23 03:56:33;;;;;;;0.75;0.73;;;3.10;90.30;;;;;;4970411;28;20467;-72
2023/12/23 03:58:59;;;;;;;3.58;1.08;;;3.10;90.90;;;;;;4969882;28;20030;-72
2023/12/23 04:01:24;;;;;;;1.25;0.45;;;3.00;91.50;;;;;;4968802;28;20114;-72
2023/12/23 04:03:50;;;;;;;1.60;0.55;;;3.00;91.80;;;;;;4974305;28;20031;-73
2023/12/23 04:06:16;;;;;;;0.98;0.30;;;2.90;92.10;;;;;;4971927;28;20039;-72
2023/12/23 04:08:41;;;;;;;1.65;0.50;;;2.90;92.40;;;;;;4969817;28;20364;-74
2023/12/23 04:11:07;;;;;;;0.32;0.20;;;2.80;92.70;;;;;;4964206;28;20035;-73
2023/12/23 04:13:33;;;;;;;1.27;0.60;;;2.80;92.90;;;;;;4968140;28;20035;-73
2023/12/23 04:15:58;;;;;;;0.68;0.50;;;2.70;93.00;;;;;;4973669;28;20245;-73
2023/12/23 04:18:24;;;;;;;1.90;0.63;;;2.70;93.10;;;;;;4970725;28;20538;-73
2023/12/23 04:20:49;;;;;;;0.38;0.32;;;2.70;93.10;;;;;;4975996;28;20038;-73
2023/12/23 04:23:15;;;;;;;2.08;0.35;;;2.70;93.50;;;;;;4974184;28;20441;-73
2023/12/23 04:25:41;;;;;;;1.27;0.32;;;2.70;93.50;;;;;;4974861;28;20181;-72
2023/12/23 04:28:07;;;;;;;1.85;0.82;;;2.80;93.20;;;;;;4981339;28;20525;-72
2023/12/23 04:30:32;;;;;;;2.03;0.77;;;3.00;92.40;;;;;;4992533;28;20130;-72
2023/12/23 04:32:58;;;;;;;1.45;0.25;;;3.00;92.10;;;;;;4989397;28;20061;-72
2023/12/23 04:35:23;;;;;;;2.95;0.75;;;3.00;92.20;;;;;;4993573;28;20058;-72
2023/12/23 04:37:49;;;;;;;0.82;0.30;;;3.00;92.40;;;;;;4993663;28;20109;-72
2023/12/23 04:40:15;;;;;;;0.95;0.43;;;3.00;92.60;;;;;;5008743;28;20469;-73
2023/12/23 04:42:41;;;;;;;3.35;0.80;;;3.00;92.30;;;;;;4991373;28;20055;-73
2023/12/23 04:45:09;;;;;;;2.67;0.50;;;3.00;92.80;;;;;;5007276;28;20041;-72
2023/12/23 04:47:34;;;;;;;1.45;0.60;;;2.90;93.10;;;;;;4990586;28;20467;-73
2023/12/23 04:50:00;;;;;;;4.00;0.50;;;3.00;92.80;;;;;;4989492;28;20038;-73
2023/12/23 04:52:25;;;;;;;1.20;0.52;;;3.00;93.30;;;;;;4978999;28;20471;-71
2023/12/23 04:54:51;;;;;;;1.35;0.65;;;2.90;93.60;;;;;;4990272;28;20030;-72
2023/12/23 04:57:16;;;;;;;1.65;0.40;;;2.80;94.00;;;;;;4991672;28;20173;-72
2023/12/23 04:59:42;;;;;;;0.95;0.47;;;2.80;94.20;;;;;;4989170;28;20037;-74
2023/12/23 05:02:08;;;;;;;0.38;0.30;;;2.80;94.40;;;;;;4992812;28;20113;-74
2023/12/23 05:04:33;;;;;;;1.23;0.30;;;2.70;94.60;;;;;;4993359;28;20034;-74
2023/12/23 05:06:59;;;;;;;1.10;0.40;;;2.80;94.80;;;;;;4989734;28;20042;-73
2023/12/23 05:09:24;;;;;;;3.45;0.40;;;2.80;94.80;;;;;;4991666;28;20117;-74
2023/12/23 05:11:50;;;;;;;0.30;0.30;;;2.80;94.80;;;;;;4993356;28;20165;-73
2023/12/23 05:14:16;;;;;;;0.22;0.22;;;2.80;94.80;;;;;;4991549;28;20049;-73
2023/12/23 05:16:41;;;;;;;0.77;0.35;;;2.80;94.70;;;;;;4992888;28;20109;-73
2023/12/23 05:19:07;;;;;;;0.52;0.30;;;2.80;94.60;;;;;;4995747;28;20062;-73
2023/12/23 05:21:32;;;;;;;3.83;0.25;;;2.80;94.70;;;;;;4992785;28;20073;-74
2023/12/23 05:23:58;;;;;;;4.95;0.63;;;2.80;94.80;;;;;;4993442;28;20031;-74
2023/12/23 05:26:23;;;;;;;1.42;0.28;;;2.80;94.80;;;;;;4978193;28;20415;-69
2023/12/23 05:28:49;;;;;;;1.60;0.40;;;2.70;94.90;;;;;;4987478;28;20487;-69
2023/12/23 05:31:14;;;;;;;0.30;0.15;;;2.70;95.10;;;;;;4990979;28;20046;-69
2023/12/23 05:33:40;;;;;;;1.13;0.40;;;2.70;95.30;;;;;;4992406;28;20070;-70
2023/12/23 05:36:06;;;;;;;0.28;0.25;;;2.70;95.50;;;;;;4991385;28;20026;-69
2023/12/23 05:38:32;;;;;;;0.22;0.22;;;2.70;95.60;;;;;;4992178;28;20042;-68
2023/12/23 05:40:57;;;;;;;2.85;0.30;;;2.70;95.60;;;;;;4993139;28;20057;-69
2023/12/23 05:43:22;;;;;;;1.55;0.40;;;2.70;95.60;;;;;;4984880;28;20056;-68
2023/12/23 05:45:48;;;;;;;0.43;0.25;;;2.60;95.50;;;;;;4992746;28;20026;-69
2023/12/23 05:48:14;;;;;;;0.73;0.17;;;2.60;95.50;;;;;;4991403;28;20035;-69
2023/12/23 05:50:39;;;;;;;0.57;0.22;;;2.60;95.60;;;;;;4990923;28;20040;-69
2023/12/23 05:53:05;;;;;;;0.17;0.17;;;2.60;95.70;;;;;;4992106;28;20427;-69
2023/12/23 05:55:31;;;;;;;0.50;0.20;;;2.60;95.70;;;;;;4991928;28;20026;-69
2023/12/23 05:57:56;;;;;;;1.92;0.30;;;2.60;95.80;;;;;;4989392;28;20399;-69
2023/12/23 06:00:22;;;;;;;0.73;0.35;;;2.60;95.90;;;;;;4991046;28;20041;-69
2023/12/23 06:02:47;;;;;;;1.25;0.20;;;2.50;95.80;;;;;;4993618;28;20084;-69
2023/12/23 06:05:13;;;;;;;0.55;0.38;;;2.40;95.90;;;;;;4991750;28;20041;-69
2023/12/23 06:07:38;;;;;;;0.20;0.20;;;2.40;95.90;;;;;;4990966;28;20376;-69
2023/12/23 06:10:05;;;;;;;1.55;0.50;;;2.40;96.00;;;;;;4984449;28;20372;-69
2023/12/23 06:12:30;;;;;;;0.40;0.40;;;2.40;96.00;;;;;;4988210;28;20034;-69
2023/12/23 06:14:57;;;;;;;2.40;0.43;;;2.40;96.00;;;;;;4988295;28;20049;-70
2023/12/23 06:17:23;;;;;;;0.88;0.50;;;2.40;96.10;;;;;;5005166;28;20117;-68
2023/12/23 06:19:49;;;;;;;0.55;0.20;;;2.40;96.20;;;;;;4989791;28;20398;-69
2023/12/23 06:22:14;;;;;;;0.35;0.20;;;2.40;96.20;;;;;;4986791;28;20117;-68
2023/12/23 06:24:40;;;;;;;1.25;0.25;;;2.30;96.30;;;;;;4982031;28;20092;-70
2023/12/23 06:27:05;;;;;;;0.20;0.20;;;2.30;96.30;;;;;;4981408;28;20034;-69
2023/12/23 06:29:31;;;;;;;0.40;0.32;;;2.30;96.40;;;;;;4984628;28;20052;-67
2023/12/23 06:31:57;;;;;;;0.20;0.20;;;2.30;96.40;;;;;;4985890;28;20026;-68
2023/12/23 06:34:22;;;;;;;2.80;0.40;;;2.20;96.40;;;;;;4986621;28;20022;-68
2023/12/23 06:36:48;;;;;;;0.20;0.20;;;2.20;96.50;;;;;;4990256;28;20042;-68
2023/12/23 06:39:13;;;;;;;3.40;0.57;;;2.20;96.50;;;;;;4989834;28;20041;-69
2023/12/23 06:41:39;;;;;;;1.10;0.35;;;2.20;96.60;;;;;;4982956;28;20034;-67
2023/12/23 06:44:04;;;;;;;0.60;0.35;;;2.10;96.60;;;;;;4990932;28;20413;-68
2023/12/23 06:46:30;;;;;;;0.50;0.30;;;2.10;96.60;;;;;;4983722;28;20039;-69
2023/12/23 06:48:55;;;;;;;0.77;0.30;;;2.10;96.60;;;;;;4990460;28;20034;-69
2023/12/23 06:51:21;;;;;;;1.75;0.55;;;2.10;96.60;;;;;;5003101;28;20046;-70
2023/12/23 06:53:48;;;;;;;1.08;0.43;;;2.10;96.60;;;;;;4989987;28;20038;-69
2023/12/23 06:56:13;;;;;;;1.65;0.25;;;2.10;96.70;;;;;;4989665;28;20034;-70
2023/12/23 06:58:39;;;;;;;0.75;0.30;;;2.10;96.80;;;;;;4983231;28;20038;-69
2023/12/23 07:01:04;;;;;;;0.32;0.20;;;2.10;96.80;;;;;;4988896;28;20034;-70
2023/12/23 07:03:30;;;;;;;2.65;0.55;;;2.10;96.80;;;;;;4992150;28;20490;-71
2023/12/23 07:05:56;;;;;;;0.30;0.30;;;2.10;96.80;;;;;;4986010;28;20038;-68
2023/12/23 07:08:22;;;;;;;0.57;0.40;;;2.10;96.80;;;;;;4991758;28;20026;-69
2023/12/23 07:10:47;;;;;;;2.22;0.35;;;2.10;96.90;;;;;;4986712;28;20043;-69
2023/12/23 07:13:13;;;;;;;0.95;0.30;;;2.10;96.90;;;;;;4986311;28;20038;-71
2023/12/23 07:15:38;;;;;;;0.45;0.30;;;2.20;96.90;;;;;;4985860;28;20097;-69
2023/12/23 07:18:04;;;;;;;2.72;0.40;;;2.20;97.00;;;;;;4993164;28;20411;-69
2023/12/23 07:20:30;;;;;;;1.38;0.25;;;2.30;97.10;;;;;;4988309;28;20038;-69
2023/12/23 07:22:55;;;;;;;1.58;0.50;;;2.30;97.10;;;;;;4989776;28;20058;-69
2023/12/23 07:25:21;;;;;;;5.28;0.70;;;2.30;97.10;;;;;;4991237;28;20038;-70
2023/12/23 07:27:46;;;;;;;0.32;0.20;;;2.30;97.10;;;;;;4986336;28;20434;-69
2023/12/23 07:30:14;;;;;;;0.90;0.40;;;2.40;97.20;;;;;;4987943;28;20092;-70
2023/12/23 07:32:40;;;;;;;0.65;0.30;;;2.40;97.20;;;;;;5002494;28;20029;-69
2023/12/23 07:35:06;;;;;;;1.30;0.85;;;2.40;97.20;;;;;;4989302;28;20038;-70
2023/12/23 07:37:31;;;;;;;0.20;0.20;;;2.50;97.20;;;;;;4991147;28;20477;-70
2023/12/23 07:39:57;;;;;;;0.65;0.65;;;2.50;97.30;;;;;;4989915;28;20507;-70
2023/12/23 07:42:22;;;;;;;1.13;0.45;;;2.50;97.30;;;;;;4990204;28;20101;-69
2023/12/23 07:44:48;;;;;;;0.45;0.35;;;2.50;97.30;;;;;;4991418;28;20030;-69
2023/12/23 07:47:13;;;;;;;1.08;0.43;;;2.50;97.30;;;;;;4991300;28;20533;-69
2023/12/23 07:49:39;;;;;;;0.38;0.38;;;2.60;97.40;;;;;;4983433;28;20448;-69
2023/12/23 07:52:06;;;;;;;3.58;0.68;;;2.50;97.40;;;;;;4988415;28;20499;-69
2023/12/23 07:54:32;;;;;;;0.63;0.25;;;2.60;97.40;;;;;;4984823;28;20451;-69
2023/12/23 07:56:57;;;;;;;0.65;0.40;;;2.60;97.40;;;;;;4989647;28;20089;-69
2023/12/23 07:59:23;;;;;;;0.20;0.20;;;2.60;97.40;;;;;;4984692;28;20475;-70
2023/12/23 08:01:48;;;;;;;2.97;0.75;;;2.60;97.40;;;;;;4991006;28;20066;-69
2023/12/23 08:04:14;;;;;;;2.15;0.90;;;2.70;97.40;;;;;;4986435;28;20049;-69
2023/12/23 08:06:40;;;;;;;5.15;1.05;;;2.70;97.40;;;;;;4988097;28;20031;-69
2023/12/23 08:09:06;;;;;;;0.77;0.57;;;2.70;97.40;;;;;;4985944;28;20585;-69
2023/12/23 08:11:31;;;;;;;0.73;0.45;;;2.70;97.40;;;;;;4985221;28;20394;-69
2023/12/23 08:13:57;;;;;;;2.90;0.68;;;2.80;97.40;;;;;;4987940;28;20542;-70
2023/12/23 08:16:22;;;;;;;1.98;0.75;;;2.80;97.40;;;;;;4983038;28;20038;-69
2023/12/23 08:18:48;;;;;;;1.05;0.60;;;2.80;97.40;;;;;;4989649;28;20470;-70
2023/12/23 08:21:14;;;;;;;0.40;0.40;;;2.80;97.40;;;;;;4991195;28;20045;-69
2023/12/23 08:23:39;;;;;;;0.43;0.38;;;2.80;97.40;;;;;;5005459;28;20053;-70
2023/12/23 08:26:05;;;;;;;0.57;0.40;;;2.80;97.50;;;;;;4983745;28;20057;-70
2023/12/23 08:28:31;;;;;;;2.45;1.15;;;2.80;97.50;;;;;;4987444;28;20050;-70
2023/12/23 08:30:56;;;;;;;1.50;0.75;;;2.90;97.50;;;;;;4987630;28;20038;-69
2023/12/23 08:33:22;;;;;;;3.72;1.33;;;2.90;97.50;;;;;;4984873;28;20164;-70
2023/12/23 08:35:48;;;;;;;1.77;0.70;;;3.00;97.50;;;;;;4989120;28;20475;-69
2023/12/23 08:38:14;;;;;;;2.05;0.90;;;3.00;97.50;;;;;;4988832;28;20478;-70
2023/12/23 08:40:40;;;;;;;3.97;1.60;;;3.00;97.60;;;;;;4987653;28;20022;-70
2023/12/23 08:43:05;;;;;;;2.35;1.10;;;3.00;97.60;;;;;;4984847;28;20398;-70
2023/12/23 08:45:30;;;;;;;2.40;1.38;;;3.10;97.60;;;;;;4985418;28;20065;-68
2023/12/23 08:47:56;;;;;;;3.30;1.63;;;3.10;97.60;;;;;;4982589;28;20026;-69
2023/12/23 08:50:22;;;;;;;4.00;1.85;;;3.10;97.60;;;;;;4984256;28;20407;-69
2023/12/23 08:52:48;;;;;;;5.35;2.22;;;3.10;97.60;;;;;;4989408;28;20033;-70
2023/12/23 08:55:14;;;;;;;3.95;1.92;;;3.20;97.60;;;;;;4987748;28;20406;-69
2023/12/23 08:57:39;;;;;;;4.68;2.03;;;3.20;97.60;;;;;;4986066;28;20037;-69
2023/12/23 09:00:06;;;;;;;5.57;2.45;;;3.20;97.60;;;;;;4989182;28;20132;-69
2023/12/23 09:02:31;;;;;;;3.80;1.73;;;3.20;97.60;;;;;;4987428;28;20261;-69
2023/12/23 09:04:57;;;;;;;3.67;1.40;;;3.20;97.70;;;;;;4990448;28;20030;-70
2023/12/23 09:07:23;;;;;;;1.35;0.85;;;3.20;97.60;;;;;;4990079;28;20523;-69
2023/12/23 09:09:48;;;;;;;4.15;1.70;;;3.30;97.60;;;;;;4989399;28;20042;-69
2023/12/23 09:12:14;;;;;;;2.35;1.00;;;3.30;97.60;;;;;;4986661;28;20042;-70
2023/12/23 09:14:39;;;;;;;3.45;1.60;;;3.30;97.60;;;;;;4991402;28;20083;-70
2023/12/23 09:17:06;;;;;;;0.90;0.63;;;3.30;97.60;;;;;;4990677;28;20466;-69
2023/12/23 09:19:31;;;;;;;3.88;0.75;;;3.40;97.60;;;;;;4986895;28;20074;-69
2023/12/23 09:21:57;;;;;;;1.50;0.57;;;3.40;97.60;;;;;;4988785;28;20128;-68
2023/12/23 09:24:22;;;;;;;0.80;0.50;;;3.40;97.60;;;;;;4988399;28;20388;-69
2023/12/23 09:26:48;;;;;;;1.67;0.55;;;3.40;97.50;;;;;;4982637;28;20455;-70
2023/12/23 09:29:13;;;;;;;1.35;0.70;;;3.40;97.50;;;;;;4990358;28;20062;-70
2023/12/23 09:31:39;;;;;;;0.50;0.40;;;3.50;97.50;;;;;;4984966;28;20056;-70
2023/12/23 09:34:04;;;;;;;0.68;0.60;;;3.50;97.50;;;;;;4991396;28;20038;-75
2023/12/23 09:36:30;;;;;;;0.45;0.43;;;3.50;97.50;;;;;;4989192;28;20043;-70
2023/12/23 09:38:55;;;;;;;1.40;0.40;;;3.50;97.50;;;;;;4987631;28;20030;-70
2023/12/23 09:41:21;;;;;;;0.90;0.47;;;3.50;97.50;;;;;;4990460;28;20042;-70
2023/12/23 09:43:49;;;;;;;0.73;0.50;;;3.50;97.50;;;;;;4989938;28;20054;-70
2023/12/23 09:46:16;;;;;;;0.47;0.28;;;3.50;97.50;;;;;;4981146;28;20037;-70
2023/12/23 09:48:42;;;;;;;2.75;0.57;;;3.60;97.50;;;;;;5000802;28;20026;-68
2023/12/23 09:51:08;;;;;;;0.93;0.28;;;3.60;97.50;;;;;;4991453;28;20553;-70
2023/12/23 09:53:37;;;;;;;0.77;0.50;;;3.60;97.50;;;;;;4991778;28;20074;-70
2023/12/23 09:56:09;;;;;;;1.05;0.70;;;3.60;97.50;;;;;;4986356;28;20046;-71
2023/12/23 09:58:34;;;;;;;0.77;0.50;;;3.70;97.50;;;;;;4986692;28;20049;-71
2023/12/23 10:01:00;;;;;;;0.35;0.30;;;3.70;97.40;;;;;;4994909;28;20030;-70
2023/12/23 10:03:25;;;;;;;0.95;0.50;;;3.70;97.40;;;;;;4984577;28;20498;-70
2023/12/23 10:05:51;;;;;;;0.45;0.30;;;3.70;97.50;;;;;;4991454;28;20041;-70
2023/12/23 10:08:17;;;;;;;1.25;0.60;;;3.80;97.40;;;;;;4990784;28;20038;-70
2023/12/23 10:10:45;;;;;;;3.55;0.70;;;3.80;97.40;;;;;;4990991;28;20034;-69
2023/12/23 10:13:11;;;;;;;1.85;0.40;;;3.80;97.40;;;;;;4989240;28;20513;-71
2023/12/23 10:15:39;;;;;;;0.30;0.30;;;3.80;97.30;;;;;;4988952;28;20030;-69
2023/12/23 10:18:06;;;;;;;0.52;0.30;;;3.80;97.40;;;;;;4988607;28;20399;-69
2023/12/23 10:20:32;;;;;;;2.30;0.60;;;3.80;97.30;;;;;;4987284;28;20030;-68
2023/12/23 10:22:58;;;;;;;0.68;0.30;;;3.80;97.30;;;;;;4982042;28;20029;-68
2023/12/23 10:25:23;;;;;;;0.65;0.32;;;3.80;97.20;;;;;;4991339;28;20031;-69
2023/12/23 10:27:54;;;;;;;0.30;0.30;;;3.80;97.20;;;;;;4988607;28;20046;-69
2023/12/23 10:30:23;;;;;;;0.90;0.60;;;3.80;97.20;;;;;;4992004;28;20026;-69
2023/12/23 10:32:53;;;;;;;1.10;0.70;;;3.90;97.20;;;;;;4992265;28;20046;-68
2023/12/23 10:35:19;;;;;;;0.45;0.45;;;3.90;97.20;;;;;;4989844;28;20165;-69
2023/12/23 10:37:46;;;;;;;1.55;0.50;;;4.00;97.10;;;;;;4986267;28;20037;-68
2023/12/23 10:40:19;;;;;;;0.60;0.40;;;4.00;97.10;;;;;;4986839;28;20099;-69
2023/12/23 10:42:47;;;;;;;0.45;0.32;;;4.10;97.10;;;;;;4987830;28;20022;-70
2023/12/23 10:45:12;;;;;;;1.48;0.60;;;4.10;97.00;;;;;;4986189;28;20041;-69
2023/12/23 10:47:39;;;;;;;1.33;0.57;;;4.00;97.00;;;;;;4987373;28;20026;-70
2023/12/23 10:50:06;;;;;;;1.48;0.30;;;4.10;97.00;;;;;;4994630;28;20124;-69
2023/12/23 10:52:32;;;;;;;0.47;0.30;;;4.00;97.00;;;;;;4990504;28;20491;-70
2023/12/23 10:55:01;;;;;;;0.50;0.30;;;4.10;97.00;;;;;;4987431;28;20101;-70
2023/12/23 10:57:28;;;;;;;0.90;0.57;;;4.10;97.00;;;;;;4988769;28;20110;-71
2023/12/23 10:59:54;;;;;;;0.65;0.50;;;4.10;97.00;;;;;;4989093;28;20036;-71
2023/12/23 11:02:26;;;;;;;0.60;0.45;;;4.10;97.10;;;;;;4990436;28;20038;-70
2023/12/23 11:04:52;;;;;;;0.57;0.43;;;4.10;97.10;;;;;;4990059;28;20046;-70
2023/12/23 11:07:22;;;;;;;0.52;0.47;;;4.10;97.20;;;;;;4990751;28;20034;-69
2023/12/23 11:09:51;;;;;;;0.60;0.50;;;4.10;97.30;;;;;;4991002;28;20049;-69
2023/12/23 11:12:17;;;;;;;0.93;0.68;;;4.10;97.30;;;;;;4987725;28;20034;-69
2023/12/23 11:14:43;;;;;;;0.60;0.50;;;4.10;97.30;;;;;;4989078;28;20026;-70
2023/12/23 11:17:29;;;;;;;2.30;1.15;;;4.10;97.40;;;;;;4983088;28;20080;-69
2023/12/23 11:19:56;;;;;;;48.42;24.05;;;4.10;97.40;;;;;;4986435;28;20430;-69
2023/12/23 11:22:29;;;;;;;4.80;2.88;;;4.10;97.40;;;;;;4985563;28;20041;-70
2023/12/23 11:24:55;;;;;;;6.65;3.78;;;4.10;97.40;;;;;;4988094;28;20493;-70
2023/12/23 11:27:34;;;;;;;3.30;2.97;;;4.10;97.40;;;;;;4986264;28;20121;-70
2023/12/23 11:30:03;;;;;;;1.67;1.10;;;4.10;97.40;;;;;;4983673;28;20375;-70
2023/12/23 11:32:35;;;;;;;0.85;0.77;;;4.10;97.40;;;;;;4991655;28;20042;-69
2023/12/23 11:35:00;;;;;;;0.63;0.63;;;4.20;97.40;;;;;;4989509;28;20049;-71
2023/12/23 11:37:52;;;;;;;0.50;0.50;;;4.20;97.40;;;;;;4988029;28;20443;-69
2023/12/23 11:40:18;;;;;;;0.50;0.40;;;4.20;97.40;;;;;;4986954;28;20085;-69
2023/12/23 11:42:45;;;;;;;0.73;0.40;;;4.20;97.50;;;;;;4984565;28;20448;-70
2023/12/23 11:45:11;;;;;;;0.85;0.40;;;4.20;97.30;;;;;;4984871;28;20375;-70
2023/12/23 11:47:37;;;;;;;0.75;0.47;;;4.30;97.30;;;;;;4988700;28;20062;-70
2023/12/23 11:50:02;;;;;;;0.75;0.45;;;4.30;97.20;;;;;;4985910;28;20068;-67
2023/12/23 11:52:28;;;;;;;0.47;0.47;;;4.30;97.20;;;;;;4984744;28;20268;-69
2023/12/23 11:54:54;;;;;;;0.43;0.28;;;4.30;97.10;;;;;;4986758;28;20487;-69
2023/12/23 11:57:20;;;;;;;0.38;0.30;;;4.40;97.10;;;;;;4982248;28;20035;-69
2023/12/23 11:59:46;;;;;;;0.70;0.20;;;4.40;97.10;;;;;;4987177;28;20490;-69
2023/12/23 12:02:11;;;;;;;0.38;0.30;;;4.30;97.00;;;;;;4987459;28;20066;-70
2023/12/23 12:04:37;;;;;;;1.13;0.50;;;4.40;97.10;;;;;;4987382;28;20097;-69
2023/12/23 12:07:03;;;;;;;6.82;1.35;;;4.40;97.10;;;;;;4986083;28;20146;-68
2023/12/23 12:09:29;;;;;;;1.55;0.68;;;4.40;97.20;;;;;;4983679;28;20691;-69
2023/12/23 12:11:54;;;;;;;1.15;0.60;;;4.30;97.10;;;;;;4988242;28;20921;-69
2023/12/23 12:14:20;;;;;;;0.35;0.22;;;4.40;97.20;;;;;;4985632;28;20062;-70
2023/12/23 12:16:45;;;;;;;0.60;0.47;;;4.40;97.20;;;;;;4983789;28;21275;-68
2023/12/23 12:19:13;;;;;;;0.95;0.55;;;4.30;97.20;;;;;;4990346;28;20027;-68
2023/12/23 12:21:38;;;;;;;0.20;0.20;;;4.40;97.20;;;;;;4991658;28;20107;-68
2023/12/23 12:24:04;;;;;;;0.60;0.40;;;4.40;97.20;;;;;;4989676;28;20117;-68
2023/12/23 12:26:29;;;;;;;0.43;0.43;;;4.40;97.20;;;;;;4989883;28;20069;-68
2023/12/23 12:28:56;;;;;;;0.40;0.40;;;4.40;97.20;;;;;;4982742;28;20397;-68
2023/12/23 12:31:22;;;;;;;1.08;0.75;;;4.40;97.20;;;;;;4989721;28;20038;-68
2023/12/23 12:33:49;;;;;;;1.08;0.60;;;4.40;97.20;;;;;;4994051;28;20390;-68
2023/12/23 12:36:16;;;;;;;0.77;0.55;;;4.40;97.20;;;;;;4994194;28;20022;-69
2023/12/23 12:38:43;;;;;;;1.05;0.47;;;4.50;97.20;;;;;;4989498;28;20125;-68
2023/12/23 12:41:10;;;;;;;0.50;0.50;;;4.50;97.20;;;;;;4989788;28;20038;-70
2023/12/23 12:43:42;;;;;;;1.42;0.47;;;4.50;97.20;;;;;;4991746;28;20149;-67
2023/12/23 12:46:08;;;;;;;0.57;0.43;;;4.40;97.30;;;;;;4987170;28;20088;-68
2023/12/23 12:48:34;;;;;;;1.35;1.00;;;4.50;97.30;;;;;;4979314;28;20039;-68
2023/12/23 12:50:59;;;;;;;0.63;0.60;;;4.50;97.30;;;;;;4995109;28;20057;-68